createdAt,value
2023-12-12T00:01:26.084Z,100502.00
2023-12-12T00:03:53.578Z,100497.00
2023-12-12T00:06:20.906Z,100483.00
2023-12-12T00:08:48.733Z,100489.00
2023-12-12T00:11:16.132Z,100487.00
2023-12-12T00:13:43.454Z,100475.00
2023-12-12T00:16:10.964Z,100483.00
2023-12-12T00:18:38.580Z,100495.00
2023-12-12T00:21:07.432Z,100490.00
2023-12-12T00:23:34.773Z,100489.00
2023-12-12T00:26:01.992Z,100488.00
2023-12-12T00:28:29.262Z,100500.00
2023-12-12T00:30:56.486Z,100488.00
2023-12-12T00:33:23.773Z,100476.00
2023-12-12T00:35:51.008Z,100483.00
2023-12-12T00:38:18.187Z,100492.00
2023-12-12T00:40:54.797Z,100486.00
2023-12-12T00:43:23.700Z,100492.00
2023-12-12T00:45:51.165Z,100487.00
2023-12-12T00:48:21.596Z,100479.00
2023-12-12T00:50:51.286Z,100487.00
2023-12-12T00:53:18.454Z,100482.00
2023-12-12T00:55:45.615Z,100484.00
2023-12-12T00:58:12.753Z,100480.00
2023-12-12T01:00:39.909Z,100491.00
2023-12-12T01:03:07.166Z,100488.00
2023-12-12T01:05:34.292Z,100481.00
2023-12-12T01:08:01.408Z,100490.00
2023-12-12T01:10:28.731Z,100480.00
2023-12-12T01:12:55.962Z,100484.00
2023-12-12T01:15:23.103Z,100482.00
2023-12-12T01:17:50.439Z,100468.00
2023-12-12T01:20:18.312Z,100475.00
2023-12-12T01:22:45.384Z,100466.00
2023-12-12T01:25:12.621Z,100457.00
2023-12-12T01:27:40.183Z,100462.00
2023-12-12T01:30:08.343Z,100463.00
2023-12-12T01:32:35.603Z,100450.00
2023-12-12T01:35:03.021Z,100459.00
2023-12-12T01:37:30.442Z,100467.00
2023-12-12T01:39:57.823Z,100464.00
2023-12-12T01:42:25.018Z,100455.00
2023-12-12T01:44:52.289Z,100458.00
2023-12-12T01:47:19.736Z,100457.00
2023-12-12T01:50:07.246Z,100449.00
2023-12-12T01:53:15.066Z,100454.00
2023-12-12T01:55:43.011Z,100453.00
2023-12-12T01:58:11.788Z,100450.00
2023-12-12T02:00:39.729Z,100456.00
2023-12-12T02:03:07.399Z,100454.00
2023-12-12T02:05:38.667Z,100456.00
2023-12-12T02:08:05.896Z,100448.00
2023-12-12T02:10:33.094Z,100454.00
2023-12-12T02:13:00.381Z,100449.00
2023-12-12T02:15:30.200Z,100456.00
2023-12-12T02:17:57.360Z,100456.00
2023-12-12T02:20:24.748Z,100461.00
2023-12-12T02:22:51.913Z,100462.00
2023-12-12T02:25:20.198Z,100468.00
2023-12-12T02:27:48.581Z,100472.00
2023-12-12T02:30:17.693Z,100475.00
2023-12-12T02:32:44.911Z,100476.00
2023-12-12T02:35:12.069Z,100467.00
2023-12-12T02:37:39.640Z,100472.00
2023-12-12T02:40:07.990Z,100471.00
2023-12-12T02:42:35.245Z,100460.00
2023-12-12T02:45:02.595Z,100468.00
2023-12-12T02:47:30.514Z,100466.00
2023-12-12T02:49:58.224Z,100475.00
2023-12-12T02:52:25.518Z,100461.00
2023-12-12T02:54:52.669Z,100456.00
2023-12-12T02:57:20.099Z,100470.00
2023-12-12T02:59:47.249Z,100459.00
2023-12-12T03:02:14.679Z,100457.00
2023-12-12T03:04:45.798Z,100455.00
2023-12-12T03:07:13.793Z,100448.00
2023-12-12T03:09:41.095Z,100449.00
2023-12-12T03:12:08.283Z,100446.00
2023-12-12T03:14:37.471Z,100455.00
2023-12-12T03:17:05.145Z,100450.00
2023-12-12T03:19:33.273Z,100454.00
2023-12-12T03:22:00.885Z,100449.00
2023-12-12T03:24:29.823Z,100440.00
2023-12-12T03:26:57.053Z,100447.00
2023-12-12T03:29:24.335Z,100437.00
2023-12-12T03:31:51.554Z,100442.00
2023-12-12T03:34:20.643Z,100442.00
2023-12-12T03:36:48.566Z,100443.00
2023-12-12T03:39:16.141Z,100453.00
2023-12-12T03:41:44.870Z,100447.00
2023-12-12T03:44:12.001Z,100435.00
2023-12-12T03:46:39.264Z,100442.00
2023-12-12T03:49:06.497Z,100427.00
2023-12-12T03:51:33.761Z,100431.00
2023-12-12T03:54:00.937Z,100419.00
2023-12-12T03:56:28.130Z,100420.00
2023-12-12T03:58:55.395Z,100415.00
2023-12-12T04:01:23.476Z,100408.00
2023-12-12T04:03:51.062Z,100409.00
2023-12-12T04:06:18.246Z,100397.00
2023-12-12T04:08:45.409Z,100396.00
2023-12-12T04:11:12.473Z,100396.00
2023-12-12T04:13:39.697Z,100397.00
2023-12-12T04:16:07.329Z,100387.00
2023-12-12T04:18:34.715Z,100391.00
2023-12-12T04:21:01.923Z,100391.00
2023-12-12T04:23:29.321Z,100389.00
2023-12-12T04:25:56.523Z,100391.00
2023-12-12T04:28:24.220Z,100389.00
2023-12-12T04:30:51.623Z,100381.00
2023-12-12T04:33:19.113Z,100384.00
2023-12-12T04:35:46.470Z,100376.00
2023-12-12T04:38:13.703Z,100362.00
2023-12-12T04:40:41.217Z,100377.00
2023-12-12T04:43:08.441Z,100370.00
2023-12-12T04:45:35.605Z,100364.00
2023-12-12T04:48:02.981Z,100355.00
2023-12-12T04:50:30.545Z,100358.00
2023-12-12T04:52:57.735Z,100360.00
2023-12-12T04:55:25.008Z,100351.00
2023-12-12T04:57:52.272Z,100356.00
2023-12-12T05:00:19.913Z,100345.00
2023-12-12T05:02:47.138Z,100350.00
2023-12-12T05:05:34.320Z,100342.00
2023-12-12T05:08:04.831Z,100341.00
2023-12-12T05:10:32.434Z,100342.00
2023-12-12T05:13:01.020Z,100339.00
2023-12-12T05:15:30.174Z,100335.00
2023-12-12T05:17:57.459Z,100335.00
2023-12-12T05:20:24.845Z,100323.00
2023-12-12T05:22:52.097Z,100313.00
2023-12-12T05:25:24.404Z,100317.00
2023-12-12T05:27:53.161Z,100320.00
2023-12-12T05:30:23.436Z,100315.00
2023-12-12T05:32:53.667Z,100308.00
2023-12-12T05:35:21.273Z,100314.00
2023-12-12T05:37:48.568Z,100310.00
2023-12-12T05:40:16.046Z,100306.00
2023-12-12T05:42:44.593Z,100305.00
2023-12-12T05:45:12.033Z,100309.00
2023-12-12T05:47:39.418Z,100298.00
2023-12-12T05:50:07.331Z,100308.00
2023-12-12T05:52:34.624Z,100311.00
2023-12-12T05:55:01.989Z,100316.00
2023-12-12T06:01:40.747Z,100316.00
2023-12-12T06:04:08.929Z,100311.00
2023-12-12T06:06:43.697Z,100312.00
2023-12-12T06:09:14.909Z,100311.00
2023-12-12T06:11:43.477Z,100300.00
2023-12-12T06:14:11.522Z,100305.00
2023-12-12T06:16:39.534Z,100302.00
2023-12-12T06:19:07.386Z,100301.00
2023-12-12T06:22:12.375Z,100299.00
2023-12-12T06:24:39.749Z,100294.00
2023-12-12T06:27:06.901Z,100295.00
2023-12-12T06:29:34.014Z,100294.00
2023-12-12T06:32:04.174Z,100296.00
2023-12-12T06:34:31.786Z,100294.00
2023-12-12T06:37:01.324Z,100287.00
2023-12-12T06:39:29.867Z,100284.00
2023-12-12T06:41:57.117Z,100281.00
2023-12-12T06:44:24.244Z,100282.00
2023-12-12T06:46:54.096Z,100281.00
2023-12-12T06:49:23.710Z,100287.00
2023-12-12T06:51:51.667Z,100281.00
2023-12-12T06:54:24.566Z,100275.00
2023-12-12T06:56:51.977Z,100275.00
2023-12-12T06:59:19.535Z,100275.00
2023-12-12T07:01:46.738Z,100276.00
2023-12-12T07:04:14.448Z,100265.00
2023-12-12T07:06:45.305Z,100263.00
2023-12-12T07:09:13.911Z,100255.00
2023-12-12T07:11:41.143Z,100253.00
2023-12-12T07:14:09.542Z,100260.00
2023-12-12T07:16:36.866Z,100262.00
2023-12-12T07:19:04.540Z,100257.00
2023-12-12T07:21:38.664Z,100261.00
2023-12-12T07:24:06.522Z,100254.00
2023-12-12T07:26:34.562Z,100256.00
2023-12-12T07:29:04.737Z,100248.00
2023-12-12T07:31:35.837Z,100245.00
2023-12-12T07:34:03.463Z,100247.00
2023-12-12T07:36:30.849Z,100246.00
2023-12-12T07:39:02.250Z,100242.00
2023-12-12T07:41:36.368Z,100252.00
2023-12-12T07:44:05.336Z,100244.00
2023-12-12T07:46:39.505Z,100242.00
2023-12-12T07:49:12.810Z,100238.00
2023-12-12T07:51:40.436Z,100232.00
2023-12-12T07:54:08.145Z,100227.00
2023-12-12T07:56:35.411Z,100224.00
2023-12-12T07:59:05.788Z,100231.00
2023-12-12T08:01:33.510Z,100230.00
2023-12-12T08:04:01.123Z,100220.00
2023-12-12T08:06:28.534Z,100216.00
2023-12-12T08:08:56.301Z,100221.00
2023-12-12T08:11:26.091Z,100218.00
2023-12-12T08:13:53.381Z,100213.00
2023-12-12T08:16:20.712Z,100208.00
2023-12-12T08:18:49.346Z,100208.00
2023-12-12T08:21:16.684Z,100204.00
2023-12-12T08:23:44.065Z,100206.00
2023-12-12T08:26:14.286Z,100215.00
2023-12-12T08:28:41.990Z,100211.00
2023-12-12T08:31:09.344Z,100207.00
2023-12-12T08:33:37.039Z,100197.00
2023-12-12T08:36:05.255Z,100191.00
2023-12-12T08:38:34.915Z,100187.00
2023-12-12T08:41:02.518Z,100190.00
2023-12-12T08:43:29.939Z,100186.00
2023-12-12T08:45:57.863Z,100184.00
2023-12-12T08:48:25.334Z,100178.00
2023-12-12T08:50:53.159Z,100168.00
2023-12-12T08:53:28.322Z,100171.00
2023-12-12T08:55:56.625Z,100158.00
2023-12-12T08:58:27.180Z,100169.00
2023-12-12T09:00:55.628Z,100170.00
2023-12-12T09:03:23.372Z,100162.00
2023-12-12T09:05:50.900Z,100159.00
2023-12-12T09:08:18.267Z,100171.00
2023-12-12T09:10:45.466Z,100163.00
2023-12-12T09:13:12.984Z,100155.00
2023-12-12T09:15:40.271Z,100166.00
2023-12-12T09:18:16.787Z,100162.00
2023-12-12T09:20:48.718Z,100152.00
2023-12-12T09:23:18.170Z,100138.00
2023-12-12T09:25:45.476Z,100126.00
2023-12-12T09:28:13.192Z,100126.00
2023-12-12T09:30:41.388Z,100126.00
2023-12-12T09:33:11.436Z,100118.00
2023-12-12T09:35:39.081Z,100122.00
2023-12-12T09:38:06.697Z,100110.00
2023-12-12T09:40:38.391Z,100127.00
2023-12-12T09:43:07.490Z,100120.00
2023-12-12T09:45:35.338Z,100121.00
2023-12-12T09:48:05.644Z,100118.00
2023-12-12T09:50:36.598Z,100109.00
2023-12-12T09:53:04.456Z,100103.00
2023-12-12T09:55:34.771Z,100090.00
2023-12-12T09:58:02.185Z,100088.00
2023-12-12T10:00:29.357Z,100084.00
2023-12-12T10:03:05.523Z,100076.00
2023-12-12T10:05:39.430Z,100073.00
2023-12-12T10:08:14.151Z,100075.00
2023-12-12T10:10:45.191Z,100077.00
2023-12-12T10:13:12.909Z,100074.00
2023-12-12T10:15:40.236Z,100058.00
2023-12-12T10:18:07.725Z,100045.00
2023-12-12T10:20:36.803Z,100035.00
2023-12-12T10:23:06.800Z,100030.00
2023-12-12T10:25:36.728Z,100016.00
2023-12-12T10:28:04.914Z,100018.00
2023-12-12T10:30:32.279Z,100020.00
2023-12-12T10:32:59.570Z,100016.00
2023-12-12T10:35:27.040Z,100016.00
2023-12-12T10:37:54.722Z,100011.00
2023-12-12T10:40:24.527Z,100000.00
2023-12-12T10:42:56.327Z,99999.00
2023-12-12T10:45:25.971Z,100001.00
2023-12-12T10:47:55.172Z,99996.00
2023-12-12T10:50:24.682Z,99996.00
2023-12-12T10:52:54.564Z,100003.00
2023-12-12T10:55:23.619Z,99999.00
2023-12-12T10:57:51.436Z,99990.00
2023-12-12T11:00:22.304Z,99979.00
2023-12-12T11:02:50.045Z,99973.00
2023-12-12T11:05:18.480Z,99972.00
2023-12-12T11:07:49.077Z,99954.00
2023-12-12T11:10:21.446Z,99944.00
2023-12-12T11:13:02.060Z,99950.00
2023-12-12T11:15:31.375Z,99943.00
2023-12-12T11:17:58.992Z,99945.00
2023-12-12T11:20:26.559Z,99939.00
2023-12-12T11:22:54.951Z,99932.00
2023-12-12T11:25:24.287Z,99941.00
2023-12-12T11:27:55.352Z,99928.00
2023-12-12T11:30:33.440Z,99928.00
2023-12-12T11:33:02.222Z,99912.00
2023-12-12T11:35:39.016Z,99920.00
2023-12-12T11:38:26.162Z,99925.00
2023-12-12T11:41:15.991Z,99926.00
2023-12-12T11:43:43.631Z,99911.00
2023-12-12T11:46:22.852Z,99918.00
2023-12-12T11:48:50.778Z,99906.00
2023-12-12T11:51:36.258Z,99905.00
2023-12-12T11:55:18.345Z,99903.00
2023-12-12T11:57:46.564Z,99890.00
2023-12-12T12:00:22.084Z,99894.00
2023-12-12T12:02:49.875Z,99877.00
2023-12-12T12:05:17.388Z,99884.00
2023-12-12T12:07:44.694Z,99882.00
2023-12-12T12:10:11.981Z,99885.00
2023-12-12T12:12:39.267Z,99881.00
2023-12-12T12:15:08.253Z,99876.00
2023-12-12T12:17:36.625Z,99879.00
2023-12-12T12:20:07.404Z,99873.00
2023-12-12T12:22:44.201Z,99875.00
2023-12-12T12:25:12.013Z,99865.00
2023-12-12T12:27:56.498Z,99865.00
2023-12-12T12:30:25.216Z,99858.00
2023-12-12T12:33:06.514Z,99842.00
2023-12-12T12:35:37.196Z,99852.00
2023-12-12T12:38:33.475Z,99848.00
2023-12-12T12:41:00.965Z,99840.00
2023-12-12T12:43:28.390Z,99832.00
2023-12-12T12:46:00.374Z,99831.00
2023-12-12T12:48:31.131Z,99839.00
2023-12-12T12:50:59.039Z,99839.00
2023-12-12T12:53:29.259Z,99834.00
2023-12-12T12:55:57.014Z,99830.00
2023-12-12T12:58:30.518Z,99827.00
2023-12-12T13:00:58.040Z,99829.00
2023-12-12T13:03:25.280Z,99820.00
2023-12-12T13:05:52.996Z,99808.00
2023-12-12T13:08:20.388Z,99808.00
2023-12-12T13:10:51.003Z,99798.00
2023-12-12T13:13:22.484Z,99801.00
2023-12-12T13:15:50.362Z,99790.00
2023-12-12T13:18:20.873Z,99799.00
2023-12-12T13:20:48.877Z,99787.00
2023-12-12T13:23:16.620Z,99790.00
2023-12-12T13:25:44.825Z,99789.00
2023-12-12T13:28:12.511Z,99778.00
2023-12-12T13:30:39.783Z,99778.00
2023-12-12T13:33:11.570Z,99765.00
2023-12-12T13:35:39.092Z,99762.00
2023-12-12T13:38:06.825Z,99749.00
2023-12-12T13:40:34.887Z,99743.00
2023-12-12T13:43:02.434Z,99748.00
2023-12-12T13:45:29.663Z,99756.00
2023-12-12T13:47:57.067Z,99735.00
2023-12-12T13:50:28.308Z,99738.00
2023-12-12T13:52:55.552Z,99729.00
2023-12-12T13:55:23.341Z,99725.00
2023-12-12T13:57:50.639Z,99727.00
2023-12-12T14:00:20.743Z,99722.00
2023-12-12T14:02:48.540Z,99729.00
2023-12-12T14:06:11.965Z,99721.00
2023-12-12T14:08:39.274Z,99723.00
2023-12-12T14:11:06.610Z,99717.00
2023-12-12T14:13:34.510Z,99724.00
2023-12-12T14:16:03.794Z,99724.00
2023-12-12T14:18:31.095Z,99716.00
2023-12-12T14:20:58.266Z,99715.00
2023-12-12T14:23:25.625Z,99716.00
2023-12-12T14:25:55.238Z,99715.00
2023-12-12T14:28:22.687Z,99701.00
2023-12-12T14:30:50.608Z,99703.00
2023-12-12T14:33:19.664Z,99693.00
2023-12-12T14:35:47.488Z,99691.00
2023-12-12T14:38:14.950Z,99687.00
2023-12-12T14:40:42.532Z,99686.00
2023-12-12T14:43:09.840Z,99673.00
2023-12-12T14:45:37.042Z,99672.00
2023-12-12T14:48:04.572Z,99671.00
2023-12-12T14:50:31.762Z,99667.00
2023-12-12T14:52:59.278Z,99661.00
2023-12-12T14:55:26.522Z,99665.00
2023-12-12T14:57:54.281Z,99667.00
2023-12-12T15:00:27.056Z,99668.00
2023-12-12T15:02:55.399Z,99664.00
2023-12-12T15:05:22.846Z,99657.00
2023-12-12T15:07:50.238Z,99653.00
2023-12-12T15:10:17.557Z,99645.00
2023-12-12T15:12:44.973Z,99645.00
2023-12-12T15:15:12.519Z,99642.00
2023-12-12T15:17:40.195Z,99645.00
2023-12-12T15:20:10.129Z,99633.00
2023-12-12T15:22:37.658Z,99634.00
2023-12-12T15:25:06.948Z,99620.00
2023-12-12T15:27:34.402Z,99615.00
2023-12-12T15:31:16.948Z,99611.00
2023-12-12T15:33:47.461Z,99609.00
2023-12-12T15:36:14.868Z,99602.00
2023-12-12T15:38:42.021Z,99609.00
2023-12-12T15:41:09.508Z,99585.00
2023-12-12T15:43:36.699Z,99581.00
2023-12-12T15:46:04.113Z,99585.00
2023-12-12T15:48:31.400Z,99586.00
2023-12-12T15:51:01.475Z,99579.00
2023-12-12T15:53:47.414Z,99576.00
2023-12-12T15:56:14.843Z,99581.00
2023-12-12T15:58:42.069Z,99570.00
2023-12-12T16:01:12.752Z,99580.00
2023-12-12T16:03:39.990Z,99571.00
2023-12-12T16:06:08.242Z,99557.00
2023-12-12T16:08:35.649Z,99566.00
2023-12-12T16:11:42.505Z,99556.00
2023-12-12T16:14:09.663Z,99557.00
2023-12-12T16:16:37.818Z,99549.00
2023-12-12T16:19:08.508Z,99542.00
2023-12-12T16:21:38.561Z,99539.00
2023-12-12T16:24:09.656Z,99549.00
2023-12-12T16:26:36.976Z,99528.00
2023-12-12T16:29:04.744Z,99533.00
2023-12-12T16:31:32.043Z,99537.00
2023-12-12T16:33:59.699Z,99534.00
2023-12-12T16:36:29.568Z,99529.00
2023-12-12T16:39:07.361Z,99533.00
2023-12-12T16:41:37.173Z,99534.00
2023-12-12T16:44:05.766Z,99541.00
2023-12-12T16:46:33.067Z,99536.00
2023-12-12T16:49:02.184Z,99535.00
2023-12-12T16:51:29.506Z,99532.00
2023-12-12T16:54:01.054Z,99530.00
2023-12-12T16:56:28.267Z,99525.00
2023-12-12T16:58:57.814Z,99529.00
2023-12-12T17:01:25.404Z,99535.00
2023-12-12T17:03:52.988Z,99521.00
2023-12-12T17:06:20.375Z,99516.00
2023-12-12T17:08:49.620Z,99514.00
2023-12-12T17:11:16.759Z,99523.00
2023-12-12T17:13:44.054Z,99511.00
2023-12-12T17:16:12.771Z,99511.00
2023-12-12T17:18:40.259Z,99517.00
2023-12-12T17:21:07.699Z,99520.00
2023-12-12T17:23:37.494Z,99524.00
2023-12-12T17:26:05.761Z,99543.00
2023-12-12T17:28:33.273Z,99548.00
2023-12-12T17:31:02.661Z,99556.00
2023-12-12T17:33:30.247Z,99537.00
2023-12-12T17:35:57.532Z,99523.00
2023-12-12T17:38:24.824Z,99531.00
2023-12-12T17:40:52.139Z,99536.00
2023-12-12T17:43:19.470Z,99523.00
2023-12-12T17:45:48.721Z,99526.00
2023-12-12T17:48:19.859Z,99508.00
2023-12-12T17:50:48.386Z,99492.00
2023-12-12T17:53:15.767Z,99490.00
2023-12-12T17:55:43.240Z,99511.00
2023-12-12T17:58:10.693Z,99495.00
2023-12-12T18:00:38.379Z,99495.00
2023-12-12T18:03:07.575Z,99490.00
2023-12-12T18:05:43.463Z,99482.00
2023-12-12T18:09:07.092Z,99468.00
2023-12-12T18:11:34.440Z,99465.00
2023-12-12T18:14:05.781Z,99470.00
2023-12-12T18:16:33.065Z,99464.00
2023-12-12T18:19:00.237Z,99446.00
2023-12-12T18:21:27.933Z,99465.00
2023-12-12T18:23:55.366Z,99471.00
2023-12-12T18:26:29.703Z,99460.00
2023-12-12T18:29:01.761Z,99450.00
2023-12-12T18:31:31.603Z,99468.00
2023-12-12T18:34:00.164Z,99469.00
2023-12-12T18:36:28.677Z,99480.00
2023-12-12T18:38:59.002Z,99486.00
2023-12-12T18:41:26.396Z,99468.00
2023-12-12T18:43:54.210Z,99483.00
2023-12-12T18:46:21.643Z,99474.00
2023-12-12T18:48:49.786Z,99453.00
2023-12-12T18:51:17.136Z,99470.00
2023-12-12T18:53:44.644Z,99466.00
2023-12-12T18:56:15.832Z,99456.00
2023-12-12T18:58:43.997Z,99458.00
2023-12-12T19:01:13.534Z,99451.00
2023-12-12T19:03:41.620Z,99439.00
2023-12-12T19:06:09.558Z,99439.00
2023-12-12T19:08:37.172Z,99447.00
2023-12-12T19:11:04.958Z,99434.00
2023-12-12T19:13:35.213Z,99432.00
2023-12-12T19:16:04.694Z,99423.00
2023-12-12T19:20:59.378Z,99438.00
2023-12-12T19:23:28.928Z,99431.00
2023-12-12T19:25:59.400Z,99427.00
2023-12-12T19:28:29.720Z,99433.00
2023-12-12T19:30:57.172Z,99436.00
2023-12-12T19:33:26.137Z,99424.00
2023-12-12T19:35:54.353Z,99432.00
2023-12-12T19:38:22.492Z,99426.00
2023-12-12T19:40:51.170Z,99427.00
2023-12-12T19:43:19.071Z,99424.00
2023-12-12T19:45:49.364Z,99428.00
2023-12-12T19:48:40.727Z,99422.00
2023-12-12T19:51:08.231Z,99411.00
2023-12-12T19:53:36.185Z,99405.00
2023-12-12T19:56:03.327Z,99412.00
2023-12-12T19:58:31.312Z,99411.00
2023-12-12T20:00:58.951Z,99404.00
2023-12-12T20:03:29.183Z,99408.00
2023-12-12T20:05:57.044Z,99405.00
2023-12-12T20:08:24.430Z,99405.00
2023-12-12T20:10:54.067Z,99404.00
2023-12-12T20:13:21.606Z,99400.00
2023-12-12T20:15:51.911Z,99405.00
2023-12-12T20:18:20.280Z,99399.00
2023-12-12T20:20:47.423Z,99389.00
2023-12-12T20:23:15.056Z,99391.00
2023-12-12T20:25:42.366Z,99389.00
2023-12-12T20:28:09.792Z,99390.00
2023-12-12T20:30:39.232Z,99394.00
2023-12-12T20:33:06.801Z,99392.00
2023-12-12T20:35:34.085Z,99390.00
2023-12-12T20:38:01.547Z,99384.00
2023-12-12T20:40:28.802Z,99386.00
2023-12-12T20:42:56.256Z,99381.00
2023-12-12T20:45:23.704Z,99378.00
2023-12-12T20:47:50.901Z,99385.00
2023-12-12T20:50:18.358Z,99385.00
2023-12-12T20:52:46.554Z,99383.00
2023-12-12T20:55:14.099Z,99396.00
2023-12-12T20:57:42.220Z,99403.00
2023-12-12T21:00:10.973Z,99403.00
2023-12-12T21:02:38.881Z,99399.00
2023-12-12T21:05:07.380Z,99392.00
2023-12-12T21:07:34.883Z,99392.00
2023-12-12T21:10:02.979Z,99394.00
2023-12-12T21:12:31.551Z,99372.00
2023-12-12T21:14:58.708Z,99365.00
2023-12-12T21:17:28.821Z,99369.00
2023-12-12T21:19:59.278Z,99374.00
2023-12-12T21:22:26.904Z,99377.00
2023-12-12T21:24:54.136Z,99373.00
2023-12-12T21:27:21.498Z,99373.00
2023-12-12T21:29:48.976Z,99373.00
2023-12-12T21:32:16.361Z,99368.00
2023-12-12T21:34:49.181Z,99366.00
2023-12-12T21:37:19.348Z,99373.00
2023-12-12T21:39:46.845Z,99369.00
2023-12-12T21:42:14.349Z,99366.00
2023-12-12T21:44:41.567Z,99377.00
2023-12-12T21:47:08.676Z,99379.00
2023-12-12T21:49:36.926Z,99376.00
2023-12-12T21:52:04.571Z,99377.00
2023-12-12T21:54:31.751Z,99374.00
2023-12-12T21:57:36.341Z,99384.00
2023-12-12T22:00:07.925Z,99377.00
2023-12-12T22:02:35.154Z,99371.00
2023-12-12T22:05:02.611Z,99369.00
2023-12-12T22:07:30.355Z,99385.00
2023-12-12T22:09:57.914Z,99384.00
2023-12-12T22:12:26.162Z,99390.00
2023-12-12T22:14:53.408Z,99384.00
2023-12-12T22:17:25.873Z,99389.00
2023-12-12T22:20:02.006Z,99386.00
2023-12-12T22:22:33.593Z,99381.00
2023-12-12T22:25:01.081Z,99387.00
2023-12-12T22:27:28.265Z,99391.00
2023-12-12T22:29:55.795Z,99386.00
2023-12-12T22:32:27.553Z,99392.00
2023-12-12T22:34:58.074Z,99381.00
2023-12-12T22:37:25.594Z,99400.00
2023-12-12T22:39:52.928Z,99397.00
2023-12-12T22:42:20.108Z,99390.00
2023-12-12T22:47:37.687Z,99390.00
2023-12-12T23:37:37.904Z,99385.00
2023-12-12T23:40:07.385Z,99385.00
2023-12-12T23:42:35.051Z,99384.00
2023-12-12T23:45:05.812Z,99383.00
2023-12-12T23:47:34.013Z,99378.00
2023-12-12T23:50:02.014Z,99382.00
2023-12-12T23:52:29.335Z,99377.00
2023-12-12T23:54:56.658Z,99371.00
2023-12-12T23:57:24.009Z,99369.00
2023-12-12T23:59:51.430Z,99362.00
